createdAt,value
2023-03-27T00:01:16.125Z,2.78
2023-03-27T00:03:43.032Z,2.25
2023-03-27T00:06:16.262Z,2.55
2023-03-27T00:08:47.800Z,1.70
2023-03-27T00:11:15.606Z,2.30
2023-03-27T00:13:49.759Z,1.90
2023-03-27T00:16:19.300Z,2.65
2023-03-27T00:18:46.862Z,2.38
2023-03-27T00:21:13.648Z,2.25
2023-03-27T00:23:40.519Z,1.85
2023-03-27T00:26:07.433Z,2.72
2023-03-27T00:28:35.478Z,2.30
2023-03-27T00:31:02.635Z,2.30
2023-03-27T00:33:29.485Z,1.77
2023-03-27T00:35:56.354Z,2.20
2023-03-27T00:38:23.182Z,1.85
2023-03-27T00:40:53.505Z,1.88
2023-03-27T00:43:29.466Z,2.60
2023-03-27T00:46:04.860Z,1.75
2023-03-27T00:48:34.644Z,1.65
2023-03-27T00:51:02.202Z,1.92
2023-03-27T00:53:29.930Z,1.60
2023-03-27T00:56:01.447Z,2.35
2023-03-27T00:58:42.120Z,1.63
2023-03-27T01:01:12.200Z,1.70
2023-03-27T01:06:06.142Z,1.85
2023-03-27T01:08:34.723Z,1.48
2023-03-27T01:11:31.004Z,1.85
2023-03-27T01:14:10.453Z,2.00
2023-03-27T01:16:49.070Z,1.63
2023-03-27T01:19:38.277Z,1.90
2023-03-27T01:22:33.195Z,2.10
2023-03-27T01:25:37.797Z,1.70
2023-03-27T01:28:26.514Z,1.70
2023-03-27T01:31:18.058Z,1.63
2023-03-27T01:34:13.659Z,1.50
2023-03-27T01:37:09.589Z,2.03
2023-03-27T01:40:00.905Z,2.10
2023-03-27T01:42:47.968Z,1.50
2023-03-27T01:45:23.857Z,2.78
2023-03-27T01:48:27.243Z,2.00
2023-03-27T01:50:59.814Z,1.95
2023-03-27T01:53:32.406Z,1.77
2023-03-27T01:56:06.673Z,2.25
2023-03-27T01:58:40.173Z,2.00
2023-03-27T02:01:10.929Z,1.80
2023-03-27T02:03:44.278Z,2.30
2023-03-27T02:06:19.410Z,2.00
2023-03-27T02:09:10.594Z,1.75
2023-03-27T02:12:06.091Z,2.00
2023-03-27T02:14:38.348Z,2.00
2023-03-27T02:17:14.116Z,2.08
2023-03-27T02:19:47.905Z,2.13
2023-03-27T02:22:15.442Z,1.83
2023-03-27T02:24:43.391Z,1.92
2023-03-27T02:27:36.196Z,1.70
2023-03-27T02:30:17.795Z,1.77
2023-03-27T02:32:50.455Z,1.92
2023-03-27T02:35:29.632Z,2.00
2023-03-27T02:38:08.506Z,1.50
2023-03-27T02:40:44.794Z,1.90
2023-03-27T02:43:55.102Z,1.83
2023-03-27T02:48:58.776Z,1.70
2023-03-27T02:51:51.142Z,1.65
2023-03-27T02:54:25.588Z,1.92
2023-03-27T02:56:57.472Z,1.80
2023-03-27T02:59:42.541Z,1.60
2023-03-27T03:02:15.009Z,1.42
2023-03-27T03:04:46.899Z,1.75
2023-03-27T03:07:14.339Z,1.42
2023-03-27T03:09:42.524Z,1.63
2023-03-27T03:12:09.206Z,1.40
2023-03-27T03:14:40.202Z,1.45
2023-03-27T03:17:06.993Z,1.60
2023-03-27T03:19:33.617Z,1.52
2023-03-27T03:22:01.077Z,1.40
2023-03-27T03:24:27.705Z,1.30
2023-03-27T03:26:54.333Z,1.48
2023-03-27T03:29:20.996Z,1.60
2023-03-27T03:31:48.657Z,1.27
2023-03-27T03:34:18.420Z,1.40
2023-03-27T03:36:49.543Z,1.20
2023-03-27T03:39:17.390Z,1.40
2023-03-27T03:41:44.017Z,1.60
2023-03-27T03:44:10.707Z,1.90
2023-03-27T03:46:37.608Z,1.52
2023-03-27T03:49:04.961Z,1.65
2023-03-27T03:51:32.446Z,1.55
2023-03-27T03:53:59.153Z,1.67
2023-03-27T03:56:28.031Z,1.80
2023-03-27T03:58:54.882Z,1.23
2023-03-27T04:01:22.961Z,1.63
2023-03-27T04:03:50.234Z,1.35
2023-03-27T04:06:26.662Z,1.27
2023-03-27T04:08:53.845Z,1.30
2023-03-27T04:11:20.686Z,1.48
2023-03-27T04:13:47.350Z,1.30
2023-03-27T04:16:14.296Z,0.90
2023-03-27T04:18:41.433Z,1.40
2023-03-27T04:21:15.660Z,1.20
2023-03-27T04:23:43.116Z,1.40
2023-03-27T04:26:12.174Z,1.30
2023-03-27T04:28:40.036Z,2.00
2023-03-27T04:31:08.445Z,1.30
2023-03-27T04:33:39.368Z,1.30
2023-03-27T04:36:08.356Z,1.40
2023-03-27T04:38:37.092Z,1.20
2023-03-27T04:41:04.728Z,1.10
2023-03-27T04:43:31.664Z,1.25
2023-03-27T04:45:58.317Z,1.40
2023-03-27T04:48:24.954Z,1.27
2023-03-27T04:50:51.720Z,1.35
2023-03-27T04:53:20.520Z,1.48
2023-03-27T04:55:51.253Z,1.30
2023-03-27T04:58:19.122Z,1.77
2023-03-27T05:00:50.205Z,1.80
2023-03-27T05:03:20.710Z,2.00
2023-03-27T05:05:49.726Z,2.03
2023-03-27T05:08:17.113Z,1.75
2023-03-27T05:10:44.925Z,1.40
2023-03-27T05:13:12.274Z,1.77
2023-03-27T05:15:39.184Z,1.38
2023-03-27T05:18:07.242Z,1.40
2023-03-27T05:20:34.705Z,1.60
2023-03-27T05:23:01.375Z,1.63
2023-03-27T05:25:29.221Z,1.40
2023-03-27T05:27:55.906Z,1.75
2023-03-27T05:30:24.680Z,1.80
2023-03-27T05:32:52.662Z,1.63
2023-03-27T05:35:22.571Z,1.80
2023-03-27T05:37:53.848Z,2.00
2023-03-27T05:40:25.051Z,1.60
2023-03-27T05:42:52.547Z,1.40
2023-03-27T05:45:19.831Z,1.58
2023-03-27T05:47:49.235Z,1.70
2023-03-27T05:50:16.662Z,1.98
2023-03-27T05:52:43.681Z,1.67
2023-03-27T05:55:10.490Z,1.70
2023-03-27T05:57:38.962Z,1.30
2023-03-27T06:00:10.557Z,1.73
2023-03-27T06:02:43.002Z,2.58
2023-03-27T06:05:13.394Z,1.80
2023-03-27T06:07:43.029Z,1.80
2023-03-27T06:10:13.417Z,1.67
2023-03-27T06:12:42.053Z,1.73
2023-03-27T06:15:09.826Z,1.80
2023-03-27T06:17:39.241Z,1.90
2023-03-27T06:20:15.325Z,1.63
2023-03-27T06:22:47.966Z,1.52
2023-03-27T06:25:15.743Z,1.60
2023-03-27T06:27:43.815Z,1.50
2023-03-27T06:30:11.312Z,1.30
2023-03-27T06:32:46.838Z,1.55
2023-03-27T06:35:16.582Z,2.20
2023-03-27T06:37:50.717Z,1.98
2023-03-27T06:40:22.744Z,1.90
2023-03-27T06:42:51.889Z,1.48
2023-03-27T06:45:19.056Z,1.95
2023-03-27T06:47:55.555Z,2.03
2023-03-27T06:50:25.342Z,2.00
2023-03-27T06:52:52.122Z,1.73
2023-03-27T06:55:20.957Z,1.98
2023-03-27T06:57:53.281Z,2.30
2023-03-27T07:00:24.424Z,1.95
2023-03-27T07:02:59.023Z,1.98
2023-03-27T07:05:27.450Z,1.90
2023-03-27T07:07:55.424Z,2.20
2023-03-27T07:10:24.138Z,1.67
2023-03-27T07:12:54.174Z,1.80
2023-03-27T07:15:22.083Z,1.95
2023-03-27T07:18:00.308Z,1.80
2023-03-27T07:20:28.715Z,1.67
2023-03-27T07:22:57.415Z,2.25
2023-03-27T07:25:25.673Z,1.80
2023-03-27T07:27:52.440Z,1.77
2023-03-27T07:30:19.048Z,1.60
2023-03-27T07:32:47.024Z,1.80
2023-03-27T07:35:15.081Z,1.65
2023-03-27T07:37:42.800Z,1.80
2023-03-27T07:40:13.413Z,1.55
2023-03-27T07:42:45.385Z,1.98
2023-03-27T07:45:13.334Z,1.20
2023-03-27T07:47:44.382Z,1.35
2023-03-27T07:50:13.583Z,1.20
2023-03-27T07:52:40.622Z,0.90
2023-03-27T07:55:08.462Z,1.25
2023-03-27T08:00:19.005Z,1.10
2023-03-27T08:02:46.462Z,1.20
2023-03-27T08:05:14.329Z,1.15
2023-03-27T08:07:42.481Z,1.35
2023-03-27T08:10:09.711Z,1.58
2023-03-27T08:12:36.999Z,1.30
2023-03-27T08:15:05.856Z,1.20
2023-03-27T08:17:33.625Z,1.40
2023-03-27T08:20:09.199Z,1.27
2023-03-27T08:22:38.144Z,1.20
2023-03-27T08:25:07.356Z,0.90
2023-03-27T08:27:34.521Z,1.25
2023-03-27T08:30:02.590Z,0.90
2023-03-27T08:32:29.372Z,0.80
2023-03-27T08:34:56.522Z,0.88
2023-03-27T08:37:23.412Z,0.90
2023-03-27T08:39:50.195Z,1.20
2023-03-27T08:42:22.223Z,1.38
2023-03-27T08:44:54.949Z,0.80
2023-03-27T08:47:33.816Z,0.93
2023-03-27T08:50:07.263Z,0.77
2023-03-27T08:52:34.490Z,0.95
2023-03-27T08:55:10.691Z,0.93
2023-03-27T08:57:37.481Z,1.25
2023-03-27T09:00:09.954Z,1.30
2023-03-27T09:02:49.662Z,1.05
2023-03-27T09:05:26.202Z,1.13
2023-03-27T09:08:34.020Z,1.10
2023-03-27T09:11:10.026Z,1.10
2023-03-27T09:13:46.337Z,0.77
2023-03-27T09:16:30.986Z,1.10
2023-03-27T09:19:07.019Z,0.85
2023-03-27T09:21:46.059Z,0.93
2023-03-27T09:24:39.343Z,1.10
2023-03-27T09:27:22.449Z,1.00
2023-03-27T09:30:10.906Z,1.00
2023-03-27T09:32:39.005Z,1.10
2023-03-27T09:35:06.098Z,0.98
2023-03-27T09:37:34.551Z,1.40
2023-03-27T09:40:07.745Z,1.10
2023-03-27T09:42:39.026Z,0.90
2023-03-27T09:45:07.937Z,0.80
2023-03-27T09:47:40.691Z,0.70
2023-03-27T09:50:32.614Z,0.73
2023-03-27T09:53:11.736Z,0.90
2023-03-27T09:55:52.820Z,0.98
2023-03-27T09:58:28.637Z,0.88
2023-03-27T10:01:16.064Z,0.80
2023-03-27T10:03:53.230Z,0.85
2023-03-27T10:06:32.175Z,0.60
2023-03-27T10:09:07.009Z,0.70
2023-03-27T10:11:35.688Z,0.90
2023-03-27T10:14:12.572Z,0.88
2023-03-27T10:16:41.825Z,0.70
2023-03-27T10:19:22.270Z,1.07
2023-03-27T10:21:49.103Z,0.80
2023-03-27T10:24:33.288Z,0.80
2023-03-27T10:27:02.101Z,0.80
2023-03-27T10:29:34.925Z,0.90
2023-03-27T10:32:04.246Z,1.00
2023-03-27T10:34:43.376Z,1.00
2023-03-27T10:37:26.674Z,0.90
2023-03-27T10:39:56.132Z,0.60
2023-03-27T10:42:27.896Z,0.90
2023-03-27T10:44:56.747Z,0.90
2023-03-27T10:47:34.194Z,0.80
2023-03-27T10:50:20.061Z,0.70
2023-03-27T10:53:23.283Z,1.05
2023-03-27T10:56:16.466Z,0.90
2023-03-27T10:58:59.674Z,1.00
2023-03-27T11:01:34.720Z,1.10
2023-03-27T11:04:08.442Z,1.00
2023-03-27T11:06:40.647Z,0.90
2023-03-27T11:09:16.164Z,0.90
2023-03-27T11:11:49.079Z,1.48
2023-03-27T11:14:33.176Z,0.90
2023-03-27T11:17:04.270Z,1.38
2023-03-27T11:19:53.961Z,0.80
2023-03-27T11:22:31.026Z,0.90
2023-03-27T11:25:14.600Z,1.20
2023-03-27T11:27:50.563Z,1.10
2023-03-27T11:30:39.123Z,1.00
2023-03-27T11:33:24.137Z,1.02
2023-03-27T11:36:02.248Z,0.80
2023-03-27T11:38:32.788Z,0.98
2023-03-27T11:40:59.918Z,1.00
2023-03-27T11:43:26.898Z,1.15
2023-03-27T11:46:20.908Z,1.10
2023-03-27T11:49:09.467Z,0.95
2023-03-27T11:51:41.812Z,0.98
2023-03-27T11:54:21.848Z,1.00
2023-03-27T11:56:57.997Z,0.93
2023-03-27T11:59:33.717Z,1.02
2023-03-27T12:02:30.703Z,1.10
2023-03-27T12:05:10.581Z,1.00
2023-03-27T12:07:53.540Z,0.98
2023-03-27T12:10:29.122Z,1.08
2023-03-27T12:13:40.480Z,0.93
2023-03-27T12:16:30.664Z,1.25
2023-03-27T12:19:29.780Z,1.20
2023-03-27T12:22:30.100Z,0.98
2023-03-27T12:25:28.524Z,1.30
2023-03-27T12:28:25.740Z,1.02
2023-03-27T12:31:28.433Z,1.20
2023-03-27T12:34:32.085Z,1.02
2023-03-27T12:36:59.862Z,1.52
2023-03-27T12:39:27.648Z,0.88
2023-03-27T12:41:54.696Z,1.42
2023-03-27T12:44:30.244Z,1.08
2023-03-27T12:47:24.773Z,1.10
2023-03-27T12:50:19.455Z,1.50
2023-03-27T12:52:46.505Z,0.82
2023-03-27T12:55:13.658Z,0.88
2023-03-27T12:57:44.751Z,1.25
2023-03-27T13:00:21.653Z,1.10
2023-03-27T13:03:15.657Z,1.02
2023-03-27T13:05:54.177Z,1.40
2023-03-27T13:08:39.283Z,1.73
2023-03-27T13:11:17.869Z,1.40
2023-03-27T13:14:06.067Z,1.90
2023-03-27T13:17:48.243Z,1.75
2023-03-27T13:20:27.327Z,1.40
2023-03-27T13:23:09.645Z,1.08
2023-03-27T13:25:55.253Z,1.20
2023-03-27T13:28:31.371Z,1.48
2023-03-27T13:30:59.950Z,1.10
2023-03-27T13:33:29.578Z,1.38
2023-03-27T13:36:00.510Z,2.08
2023-03-27T13:38:52.918Z,1.50
2023-03-27T13:41:41.413Z,1.80
2023-03-27T13:44:26.549Z,1.33
2023-03-27T13:47:12.890Z,1.08
2023-03-27T13:50:03.740Z,1.40
2023-03-27T13:52:58.320Z,1.48
2023-03-27T13:55:42.424Z,1.15
2023-03-27T13:58:35.009Z,1.60
2023-03-27T14:01:30.552Z,1.20
2023-03-27T14:04:15.745Z,1.25
2023-03-27T14:07:16.412Z,1.48
2023-03-27T14:10:16.797Z,1.13
2023-03-27T14:12:58.139Z,1.60
2023-03-27T14:15:25.252Z,1.70
2023-03-27T14:18:22.347Z,1.40
2023-03-27T14:20:54.911Z,1.27
2023-03-27T14:23:37.402Z,1.65
2023-03-27T14:26:12.821Z,2.53
2023-03-27T14:28:55.034Z,1.48
2023-03-27T14:31:23.935Z,1.70
2023-03-27T14:34:09.780Z,1.15
2023-03-27T14:36:42.226Z,1.33
2023-03-27T14:39:20.684Z,1.10
2023-03-27T14:42:00.552Z,1.40
2023-03-27T14:44:31.032Z,1.30
2023-03-27T14:47:13.204Z,1.35
2023-03-27T14:49:47.416Z,1.80
2023-03-27T14:52:35.363Z,1.80
2023-03-27T14:55:04.069Z,1.42
2023-03-27T14:57:30.803Z,1.30
2023-03-27T14:59:58.110Z,1.30
2023-03-27T15:02:34.808Z,1.33
2023-03-27T15:05:14.768Z,1.30
2023-03-27T15:07:42.929Z,1.02
2023-03-27T15:10:15.358Z,1.08
2023-03-27T15:12:48.459Z,1.42
2023-03-27T15:15:42.923Z,1.58
2023-03-27T15:18:20.784Z,1.20
2023-03-27T15:20:50.398Z,1.67
2023-03-27T15:23:28.576Z,1.50
2023-03-27T15:26:05.584Z,1.10
2023-03-27T15:28:40.396Z,1.27
2023-03-27T15:31:08.327Z,0.80
2023-03-27T15:33:47.574Z,1.10
2023-03-27T15:36:28.605Z,1.25
2023-03-27T15:39:00.601Z,1.20
2023-03-27T15:41:27.556Z,1.45
2023-03-27T15:44:06.304Z,1.25
2023-03-27T15:46:53.137Z,0.73
2023-03-27T15:49:37.971Z,1.40
2023-03-27T15:52:46.876Z,1.25
2023-03-27T15:55:13.769Z,0.90
2023-03-27T15:57:41.012Z,1.40
2023-03-27T16:00:12.488Z,1.25
2023-03-27T16:02:40.626Z,2.05
2023-03-27T16:05:07.653Z,1.17
2023-03-27T16:07:42.519Z,1.90
2023-03-27T16:10:10.111Z,1.10
2023-03-27T16:12:39.939Z,1.20
2023-03-27T16:15:27.591Z,1.90
2023-03-27T16:17:56.704Z,8.77
2023-03-27T16:20:23.394Z,8.40
2023-03-27T16:22:51.051Z,2.55
2023-03-27T16:25:17.764Z,1.30
2023-03-27T16:27:48.374Z,1.55
2023-03-27T16:30:35.298Z,1.33
2023-03-27T16:33:02.947Z,1.85
2023-03-27T16:35:34.061Z,1.13
2023-03-27T16:38:01.210Z,2.95
2023-03-27T16:40:28.266Z,11.20
2023-03-27T16:42:54.983Z,2.08
2023-03-27T16:45:21.866Z,5.57
2023-03-27T16:47:52.879Z,1.70
2023-03-27T16:50:23.382Z,1.88
2023-03-27T16:52:50.448Z,1.25
2023-03-27T16:55:17.463Z,1.35
2023-03-27T16:57:46.111Z,1.30
2023-03-27T17:00:15.176Z,1.25
2023-03-27T17:02:44.356Z,1.33
2023-03-27T17:05:11.596Z,6.20
2023-03-27T17:07:38.918Z,20.10
2023-03-27T17:10:06.641Z,7.78
2023-03-27T17:12:33.510Z,3.38
2023-03-27T17:15:00.569Z,2.40
2023-03-27T17:17:30.470Z,3.03
2023-03-27T17:19:57.334Z,2.28
2023-03-27T17:22:26.458Z,2.83
2023-03-27T17:24:56.563Z,3.83
2023-03-27T17:27:26.614Z,3.88
2023-03-27T17:29:55.688Z,3.67
2023-03-27T17:32:22.595Z,3.38
2023-03-27T17:34:50.871Z,4.15
2023-03-27T17:37:18.718Z,3.80
2023-03-27T17:39:45.721Z,3.00
2023-03-27T17:42:12.611Z,2.83
2023-03-27T17:44:39.669Z,3.00
2023-03-27T17:47:07.561Z,2.63
2023-03-27T17:49:34.959Z,2.95
2023-03-27T17:52:07.585Z,2.88
2023-03-27T17:54:34.848Z,2.63
2023-03-27T17:57:01.761Z,3.60
2023-03-27T17:59:30.946Z,4.10
2023-03-27T18:01:58.654Z,3.47
2023-03-27T18:04:25.891Z,3.25
2023-03-27T18:06:52.969Z,9.02
2023-03-27T18:09:19.799Z,6.35
2023-03-27T18:11:47.119Z,7.35
2023-03-27T18:14:13.764Z,6.28
2023-03-27T18:16:40.588Z,3.80
2023-03-27T18:19:08.903Z,5.72
2023-03-27T18:21:36.118Z,7.07
2023-03-27T18:24:02.927Z,7.38
2023-03-27T18:26:29.944Z,9.70
2023-03-27T18:28:57.897Z,9.13
2023-03-27T18:31:25.255Z,5.68
2023-03-27T18:33:52.513Z,3.50
2023-03-27T18:36:19.360Z,3.05
2023-03-27T18:38:48.347Z,3.47
2023-03-27T18:41:16.605Z,3.28
2023-03-27T18:43:43.239Z,3.00
2023-03-27T18:46:16.580Z,3.75
2023-03-27T18:48:45.338Z,2.78
2023-03-27T18:51:12.043Z,3.65
2023-03-27T18:53:38.813Z,2.90
2023-03-27T18:56:05.921Z,2.60
2023-03-27T18:58:32.809Z,3.35
2023-03-27T19:01:00.104Z,2.67
2023-03-27T19:03:30.538Z,2.90
2023-03-27T19:06:00.990Z,3.28
2023-03-27T19:08:27.718Z,3.60
2023-03-27T19:10:58.145Z,2.95
2023-03-27T19:13:25.589Z,3.20
2023-03-27T19:15:52.256Z,2.90
2023-03-27T19:18:19.024Z,3.40
2023-03-27T19:20:45.651Z,2.08
2023-03-27T19:23:12.360Z,2.30
2023-03-27T19:25:39.096Z,2.08
2023-03-27T19:28:06.779Z,1.90
2023-03-27T19:30:33.683Z,1.75
2023-03-27T19:33:00.932Z,1.25
2023-03-27T19:35:28.398Z,1.65
2023-03-27T19:37:55.156Z,1.77
2023-03-27T19:40:22.262Z,1.10
2023-03-27T19:42:49.159Z,1.10
2023-03-27T19:45:16.396Z,1.40
2023-03-27T19:47:43.292Z,1.42
2023-03-27T19:50:10.329Z,1.70
2023-03-27T19:52:37.657Z,2.30
2023-03-27T19:55:04.918Z,1.30
2023-03-27T19:57:31.789Z,1.50
2023-03-27T19:59:58.449Z,1.48
2023-03-27T20:02:27.288Z,2.03
2023-03-27T20:04:54.250Z,2.30
2023-03-27T20:07:20.920Z,3.17
2023-03-27T20:09:47.685Z,2.13
2023-03-27T20:12:14.799Z,2.03
2023-03-27T20:14:41.443Z,1.60
2023-03-27T20:17:21.380Z,1.33
2023-03-27T20:19:55.615Z,1.45
2023-03-27T20:22:22.431Z,1.58
2023-03-27T20:24:49.359Z,1.50
2023-03-27T20:27:19.638Z,1.27
2023-03-27T20:29:47.265Z,1.50
2023-03-27T20:32:14.280Z,1.10
2023-03-27T20:34:41.029Z,1.10
2023-03-27T20:37:12.028Z,1.30
2023-03-27T20:39:47.268Z,1.30
2023-03-27T20:42:16.247Z,1.48
2023-03-27T20:44:44.636Z,1.55
2023-03-27T20:47:12.547Z,1.30
2023-03-27T20:49:42.779Z,1.30
2023-03-27T20:54:38.052Z,1.20
2023-03-27T20:57:05.852Z,1.10
2023-03-27T20:59:35.857Z,1.40
2023-03-27T21:02:06.355Z,2.05
2023-03-27T21:04:33.137Z,1.23
2023-03-27T21:06:59.979Z,1.35
2023-03-27T21:09:27.456Z,1.25
2023-03-27T21:11:55.821Z,1.83
2023-03-27T21:14:23.085Z,1.33
2023-03-27T21:16:49.944Z,1.20
2023-03-27T21:19:17.198Z,1.38
2023-03-27T21:21:44.146Z,2.33
2023-03-27T21:24:11.135Z,1.30
2023-03-27T21:26:37.991Z,1.33
2023-03-27T21:29:05.505Z,1.48
2023-03-27T21:31:32.231Z,1.75
2023-03-27T21:33:59.905Z,1.65
2023-03-27T21:36:29.410Z,1.40
2023-03-27T21:38:56.867Z,1.45
2023-03-27T21:41:25.005Z,1.80
2023-03-27T21:43:52.113Z,1.52
2023-03-27T21:46:18.857Z,1.17
2023-03-27T21:48:50.125Z,1.45
2023-03-27T21:51:16.779Z,1.10
2023-03-27T21:53:43.425Z,1.00
2023-03-27T21:56:10.173Z,1.60
2023-03-27T21:58:36.924Z,1.10
2023-03-27T22:01:04.562Z,1.40
2023-03-27T22:03:31.434Z,1.58
2023-03-27T22:06:11.758Z,1.40
2023-03-27T22:08:40.586Z,1.30
2023-03-27T22:11:07.923Z,1.35
2023-03-27T22:13:36.197Z,2.03
2023-03-27T22:16:08.375Z,1.50
2023-03-27T22:18:35.136Z,1.20
2023-03-27T22:21:19.561Z,1.17
2023-03-27T22:23:46.503Z,1.20
2023-03-27T22:26:13.193Z,1.05
2023-03-27T22:28:39.939Z,1.05
2023-03-27T22:31:07.479Z,1.20
2023-03-27T22:33:35.260Z,1.15
2023-03-27T22:36:02.297Z,1.20
2023-03-27T22:38:30.962Z,1.27
2023-03-27T22:40:59.009Z,1.15
2023-03-27T22:43:28.583Z,1.02
2023-03-27T22:45:55.646Z,1.33
2023-03-27T22:48:22.339Z,1.15
2023-03-27T22:50:56.635Z,1.25
2023-03-27T22:53:24.999Z,1.20
2023-03-27T22:55:53.364Z,1.30
2023-03-27T22:58:20.647Z,1.40
2023-03-27T23:00:51.945Z,1.20
2023-03-27T23:03:19.639Z,1.20
2023-03-27T23:05:49.123Z,1.10
2023-03-27T23:08:17.292Z,1.35
2023-03-27T23:10:44.428Z,1.40
2023-03-27T23:13:11.609Z,1.50
2023-03-27T23:15:38.256Z,1.67
2023-03-27T23:18:05.744Z,1.10
2023-03-27T23:20:32.727Z,1.40
2023-03-27T23:22:59.513Z,1.40
2023-03-27T23:25:26.290Z,1.55
2023-03-27T23:27:52.968Z,1.60
2023-03-27T23:30:19.858Z,1.25
2023-03-27T23:32:46.719Z,1.35
2023-03-27T23:35:13.406Z,1.20
2023-03-27T23:37:40.488Z,1.08
2023-03-27T23:40:07.865Z,1.23
2023-03-27T23:42:34.628Z,1.58
2023-03-27T23:45:01.443Z,1.10
2023-03-27T23:47:28.313Z,0.98
2023-03-27T23:49:55.163Z,1.60
2023-03-27T23:52:22.024Z,1.30
2023-03-27T23:54:48.735Z,0.80
